createdAt,value
2019-02-24T00:01:16.265Z,63.18
2019-02-24T00:03:45.489Z,63.10
2019-02-24T00:06:14.874Z,63.06
2019-02-24T00:08:44.117Z,62.36
2019-02-24T00:11:13.307Z,62.57
2019-02-24T00:13:43.049Z,62.84
2019-02-24T00:16:12.399Z,62.59
2019-02-24T00:18:41.595Z,62.87
2019-02-24T00:21:10.808Z,62.48
2019-02-24T00:23:40.041Z,62.76
2019-02-24T00:26:10.741Z,62.89
2019-02-24T00:28:40.227Z,62.89
2019-02-24T00:31:09.882Z,63.12
2019-02-24T00:33:39.044Z,63.33
2019-02-24T00:36:08.251Z,63.50
2019-02-24T00:38:37.404Z,63.43
2019-02-24T00:41:06.934Z,63.56
2019-02-24T00:43:36.114Z,63.63
2019-02-24T00:46:05.308Z,63.44
2019-02-24T00:48:34.846Z,63.44
2019-02-24T00:51:04.091Z,63.29
2019-02-24T00:53:33.674Z,63.39
2019-02-24T00:56:03.222Z,63.59
2019-02-24T00:58:32.397Z,63.66
2019-02-24T01:01:01.947Z,63.50
2019-02-24T01:03:31.186Z,63.80
2019-02-24T01:06:01.211Z,63.89
2019-02-24T01:08:30.547Z,63.91
2019-02-24T01:11:00.412Z,63.65
2019-02-24T01:13:29.899Z,63.17
2019-02-24T01:16:00.643Z,62.87
2019-02-24T01:18:30.174Z,62.51
2019-02-24T01:20:59.481Z,62.21
2019-02-24T01:23:28.663Z,62.27
2019-02-24T01:25:58.193Z,62.25
2019-02-24T01:28:27.697Z,62.24
2019-02-24T01:30:56.883Z,62.04
2019-02-24T01:33:26.439Z,62.38
2019-02-24T01:35:55.975Z,62.88
2019-02-24T01:38:25.478Z,63.25
2019-02-24T01:40:55.435Z,63.94
2019-02-24T01:43:25.013Z,63.55
2019-02-24T01:45:54.785Z,63.31
2019-02-24T01:48:24.342Z,63.31
2019-02-24T01:50:53.930Z,62.95
2019-02-24T01:53:23.101Z,62.84
2019-02-24T01:55:52.600Z,62.61
2019-02-24T01:58:22.173Z,62.71
2019-02-24T02:00:51.696Z,62.67
2019-02-24T02:03:21.289Z,63.05
2019-02-24T02:05:50.998Z,63.36
2019-02-24T02:08:20.918Z,63.64
2019-02-24T02:10:50.429Z,64.02
2019-02-24T02:13:19.659Z,63.88
2019-02-24T02:15:48.828Z,64.16
2019-02-24T02:18:18.375Z,64.63
2019-02-24T02:20:47.576Z,64.46
2019-02-24T02:23:16.805Z,64.47
2019-02-24T02:25:46.634Z,64.55
2019-02-24T02:28:16.761Z,64.51
2019-02-24T02:30:45.923Z,64.41
2019-02-24T02:33:15.437Z,64.71
2019-02-24T02:35:44.970Z,65.04
2019-02-24T02:38:14.139Z,64.75
2019-02-24T02:40:44.064Z,65.02
2019-02-24T02:43:13.211Z,65.37
2019-02-24T02:45:42.624Z,65.67
2019-02-24T02:48:12.090Z,65.87
2019-02-24T02:50:41.572Z,65.72
2019-02-24T02:53:11.188Z,65.10
2019-02-24T02:55:41.105Z,65.27
2019-02-24T02:58:11.473Z,65.73
2019-02-24T03:00:41.160Z,65.50
2019-02-24T03:03:10.621Z,65.80
2019-02-24T03:05:41.411Z,64.60
2019-02-24T03:08:12.708Z,64.69
2019-02-24T03:10:44.026Z,64.62
2019-02-24T03:13:14.184Z,63.89
2019-02-24T03:15:43.407Z,63.25
2019-02-24T03:18:12.985Z,63.51
2019-02-24T03:20:42.501Z,63.84
2019-02-24T03:23:11.689Z,64.34
2019-02-24T03:25:41.143Z,64.36
2019-02-24T03:28:10.752Z,64.62
2019-02-24T03:30:40.230Z,64.68
2019-02-24T03:33:09.775Z,64.47
2019-02-24T03:35:38.919Z,64.47
2019-02-24T03:38:08.638Z,64.09
2019-02-24T03:40:38.174Z,64.05
2019-02-24T03:43:07.796Z,64.15
2019-02-24T03:45:36.968Z,64.48
2019-02-24T03:48:06.665Z,64.68
2019-02-24T03:50:36.145Z,64.43
2019-02-24T03:53:06.156Z,64.51
2019-02-24T03:55:35.570Z,64.26
2019-02-24T03:58:05.109Z,64.15
2019-02-24T04:00:34.621Z,63.87
2019-02-24T04:03:04.151Z,63.77
2019-02-24T04:05:33.329Z,63.51
2019-02-24T04:08:02.489Z,62.92
2019-02-24T04:10:32.468Z,62.79
2019-02-24T04:13:01.611Z,62.88
2019-02-24T04:15:31.149Z,62.46
2019-02-24T04:18:00.301Z,62.26
2019-02-24T04:20:29.478Z,61.79
2019-02-24T04:22:58.667Z,61.30
2019-02-24T04:25:27.894Z,60.92
2019-02-24T04:27:57.468Z,60.76
2019-02-24T04:30:28.398Z,61.13
2019-02-24T04:32:58.206Z,62.14
2019-02-24T04:35:27.715Z,62.48
2019-02-24T04:37:57.629Z,63.16
2019-02-24T04:40:27.113Z,64.04
2019-02-24T04:42:56.343Z,64.34
2019-02-24T04:45:25.511Z,64.85
2019-02-24T04:47:55.325Z,64.98
2019-02-24T04:50:24.546Z,65.14
2019-02-24T04:52:53.781Z,65.32
2019-02-24T04:55:22.978Z,65.22
2019-02-24T04:57:52.201Z,65.12
2019-02-24T05:00:21.732Z,65.05
2019-02-24T05:02:50.924Z,65.30
2019-02-24T05:05:20.471Z,65.17
2019-02-24T05:07:50.255Z,64.60
2019-02-24T05:10:19.780Z,63.31
2019-02-24T05:12:49.475Z,63.26
2019-02-24T05:15:18.758Z,63.46
2019-02-24T05:17:48.198Z,63.25
2019-02-24T05:20:17.532Z,63.77
2019-02-24T05:22:47.009Z,64.19
2019-02-24T05:25:16.496Z,63.16
2019-02-24T05:27:45.774Z,62.18
2019-02-24T05:30:15.308Z,61.56
2019-02-24T05:32:44.444Z,61.70
2019-02-24T05:35:13.685Z,62.33
2019-02-24T05:37:43.172Z,62.60
2019-02-24T05:40:12.381Z,63.16
2019-02-24T05:42:42.568Z,63.29
2019-02-24T05:45:11.840Z,63.58
2019-02-24T05:47:41.318Z,63.33
2019-02-24T05:50:10.507Z,63.23
2019-02-24T05:52:39.873Z,63.53
2019-02-24T05:55:09.060Z,63.80
2019-02-24T05:57:38.673Z,64.23
2019-02-24T06:00:08.759Z,64.68
2019-02-24T06:02:37.921Z,64.77
2019-02-24T06:05:07.769Z,65.03
2019-02-24T06:07:36.955Z,65.27
2019-02-24T06:10:06.218Z,65.71
2019-02-24T06:12:35.401Z,65.85
2019-02-24T06:15:04.942Z,65.54
2019-02-24T06:17:34.146Z,65.59
2019-02-24T06:20:03.303Z,65.71
2019-02-24T06:22:32.496Z,65.86
2019-02-24T06:25:01.757Z,65.79
2019-02-24T06:27:31.279Z,66.07
2019-02-24T06:30:04.825Z,66.53
2019-02-24T06:32:31.418Z,66.96
2019-02-24T06:35:00.570Z,67.02
2019-02-24T06:37:30.089Z,67.48
2019-02-24T06:39:59.732Z,67.46
2019-02-24T06:42:28.916Z,67.40
2019-02-24T06:44:58.113Z,67.26
2019-02-24T06:47:27.681Z,67.47
2019-02-24T06:49:56.879Z,67.64
2019-02-24T06:52:28.045Z,67.28
2019-02-24T06:54:57.376Z,67.31
2019-02-24T06:57:27.294Z,66.24
2019-02-24T06:59:56.466Z,66.22
2019-02-24T07:02:26.014Z,66.01
2019-02-24T07:04:55.493Z,64.62
2019-02-24T07:07:25.068Z,62.97
2019-02-24T07:09:54.927Z,62.40
2019-02-24T07:12:25.378Z,62.33
2019-02-24T07:14:55.685Z,62.03
2019-02-24T07:17:25.495Z,62.75
2019-02-24T07:19:54.787Z,62.84
2019-02-24T07:22:24.313Z,62.98
2019-02-24T07:24:53.573Z,62.71
2019-02-24T07:27:23.230Z,61.85
2019-02-24T07:29:52.896Z,60.97
2019-02-24T07:32:22.041Z,61.24
2019-02-24T07:34:51.226Z,61.08
2019-02-24T07:37:21.172Z,60.57
2019-02-24T07:39:50.413Z,60.45
2019-02-24T07:42:19.576Z,60.38
2019-02-24T07:44:49.064Z,60.27
2019-02-24T07:47:18.855Z,61.00
2019-02-24T07:49:48.322Z,61.82
2019-02-24T07:52:17.506Z,62.29
2019-02-24T07:54:47.012Z,61.73
2019-02-24T07:57:16.673Z,61.26
2019-02-24T07:59:46.180Z,61.13
2019-02-24T08:02:15.716Z,60.85
2019-02-24T08:04:44.972Z,60.17
2019-02-24T08:07:14.494Z,59.97
2019-02-24T08:09:43.806Z,59.05
2019-02-24T08:12:12.988Z,58.43
2019-02-24T08:14:43.654Z,58.43
2019-02-24T08:17:13.485Z,58.18
2019-02-24T08:19:43.460Z,57.59
2019-02-24T08:22:13.373Z,56.37
2019-02-24T08:24:43.508Z,54.79
2019-02-24T08:27:12.920Z,53.49
2019-02-24T08:29:42.712Z,53.12
2019-02-24T08:32:11.904Z,52.53
2019-02-24T08:34:41.740Z,51.37
2019-02-24T08:37:11.637Z,50.88
2019-02-24T08:39:41.482Z,50.24
2019-02-24T08:42:10.712Z,48.34
2019-02-24T08:44:41.073Z,47.92
2019-02-24T08:47:10.491Z,47.90
2019-02-24T08:49:40.228Z,47.58
2019-02-24T08:52:09.376Z,47.19
2019-02-24T08:54:38.585Z,46.31
2019-02-24T08:57:07.731Z,45.84
2019-02-24T08:59:38.355Z,44.94
2019-02-24T09:02:07.620Z,44.95
2019-02-24T09:04:36.762Z,45.05
2019-02-24T09:07:08.431Z,44.73
2019-02-24T09:09:37.628Z,44.29
2019-02-24T09:12:07.252Z,43.20
2019-02-24T09:14:36.848Z,43.27
2019-02-24T09:17:06.431Z,42.77
2019-02-24T09:19:36.742Z,42.38
2019-02-24T09:22:06.459Z,42.46
2019-02-24T09:24:36.783Z,41.26
2019-02-24T09:27:06.038Z,40.19
2019-02-24T09:29:35.464Z,39.31
2019-02-24T09:32:04.626Z,40.02
2019-02-24T09:34:34.431Z,39.28
2019-02-24T09:37:04.256Z,40.71
2019-02-24T09:39:33.804Z,41.11
2019-02-24T09:42:03.060Z,43.24
2019-02-24T09:44:32.277Z,44.78
2019-02-24T09:47:01.565Z,45.25
2019-02-24T09:49:30.775Z,45.04
2019-02-24T09:52:00.174Z,44.58
2019-02-24T09:54:30.338Z,43.05
2019-02-24T09:56:59.678Z,43.12
2019-02-24T09:59:29.147Z,37.79
2019-02-24T10:01:58.371Z,35.86
2019-02-24T10:04:27.943Z,37.17
2019-02-24T10:06:57.290Z,35.77
2019-02-24T10:09:26.757Z,36.38
2019-02-24T10:11:56.676Z,36.82
2019-02-24T10:14:26.096Z,37.66
2019-02-24T10:16:55.280Z,35.53
2019-02-24T10:19:24.723Z,34.54
2019-02-24T10:21:53.895Z,34.39
2019-02-24T10:24:23.379Z,33.50
2019-02-24T10:26:53.029Z,32.57
2019-02-24T10:29:22.203Z,32.63
2019-02-24T10:31:51.808Z,35.04
2019-02-24T10:34:21.406Z,34.10
2019-02-24T10:36:50.576Z,36.25
2019-02-24T10:39:19.763Z,36.21
2019-02-24T10:41:49.232Z,34.34
2019-02-24T10:44:20.070Z,34.58
2019-02-24T10:46:49.723Z,32.41
2019-02-24T10:49:19.699Z,33.13
2019-02-24T10:51:49.594Z,32.62
2019-02-24T10:54:20.015Z,31.50
2019-02-24T10:56:49.372Z,31.44
2019-02-24T10:59:18.963Z,32.45
2019-02-24T11:01:48.132Z,33.62
2019-02-24T11:04:17.765Z,32.35
2019-02-24T11:06:47.312Z,34.34
2019-02-24T11:09:16.845Z,37.54
2019-02-24T11:11:46.334Z,37.20
2019-02-24T11:14:16.168Z,37.90
2019-02-24T11:16:45.986Z,37.37
2019-02-24T11:19:15.489Z,37.72
2019-02-24T11:21:44.739Z,37.54
2019-02-24T11:24:13.992Z,38.14
2019-02-24T11:26:43.933Z,39.07
2019-02-24T11:29:13.748Z,38.75
2019-02-24T11:31:43.331Z,39.08
2019-02-24T11:34:12.496Z,38.49
2019-02-24T11:36:41.664Z,38.38
2019-02-24T11:39:11.005Z,38.14
2019-02-24T11:41:40.540Z,37.94
2019-02-24T11:44:10.427Z,38.75
2019-02-24T11:46:40.376Z,38.88
2019-02-24T11:49:09.718Z,38.44
2019-02-24T11:51:39.001Z,37.88
2019-02-24T11:54:08.781Z,39.18
2019-02-24T11:56:38.318Z,38.62
2019-02-24T11:59:07.462Z,37.27
2019-02-24T12:01:36.930Z,35.88
2019-02-24T12:04:06.564Z,38.44
2019-02-24T12:06:36.112Z,40.17
2019-02-24T12:09:05.860Z,36.72
2019-02-24T12:11:35.484Z,36.87
2019-02-24T12:14:05.066Z,35.55
2019-02-24T12:16:34.617Z,33.63
2019-02-24T12:19:03.825Z,33.79
2019-02-24T12:21:33.372Z,35.15
2019-02-24T12:24:02.982Z,35.76
2019-02-24T12:26:32.135Z,34.65
2019-02-24T12:29:01.683Z,34.58
2019-02-24T12:31:30.971Z,34.52
2019-02-24T12:34:00.693Z,35.46
2019-02-24T12:36:30.593Z,33.17
2019-02-24T12:38:59.863Z,32.58
2019-02-24T12:41:29.270Z,30.71
2019-02-24T12:43:58.428Z,33.56
2019-02-24T12:46:27.959Z,35.06
2019-02-24T12:48:57.540Z,31.24
2019-02-24T12:51:27.949Z,34.65
2019-02-24T12:53:57.470Z,31.28
2019-02-24T12:56:27.027Z,31.71
2019-02-24T12:58:57.196Z,31.44
2019-02-24T13:01:27.096Z,32.41
2019-02-24T13:03:57.177Z,31.95
2019-02-24T13:06:27.060Z,33.04
2019-02-24T13:08:56.572Z,35.53
2019-02-24T13:11:26.623Z,31.04
2019-02-24T13:13:56.458Z,34.47
2019-02-24T13:16:26.405Z,33.30
2019-02-24T13:18:55.978Z,28.90
2019-02-24T13:21:25.520Z,29.24
2019-02-24T13:23:55.066Z,29.28
2019-02-24T13:26:24.349Z,33.15
2019-02-24T13:28:53.812Z,31.48
2019-02-24T13:31:23.619Z,31.24
2019-02-24T13:33:52.831Z,31.72
2019-02-24T13:36:22.336Z,34.71
2019-02-24T13:38:51.824Z,34.56
2019-02-24T13:41:21.752Z,29.94
2019-02-24T13:43:51.413Z,32.48
2019-02-24T13:46:20.570Z,30.88
2019-02-24T13:48:49.817Z,29.52
2019-02-24T13:51:18.971Z,32.23
2019-02-24T13:53:49.361Z,32.55
2019-02-24T13:56:18.614Z,28.05
2019-02-24T13:58:47.744Z,27.64
2019-02-24T14:01:17.183Z,31.19
2019-02-24T14:03:46.713Z,30.70
2019-02-24T14:06:15.868Z,32.46
2019-02-24T14:08:45.070Z,29.71
2019-02-24T14:11:14.625Z,29.62
2019-02-24T14:13:44.414Z,29.63
2019-02-24T14:16:14.304Z,28.75
2019-02-24T14:18:43.577Z,27.64
2019-02-24T14:21:12.814Z,27.77
2019-02-24T14:23:42.057Z,30.26
2019-02-24T14:26:11.898Z,32.57
2019-02-24T14:28:41.645Z,29.14
2019-02-24T14:31:10.797Z,27.35
2019-02-24T14:33:40.384Z,29.36
2019-02-24T14:36:09.619Z,29.78
2019-02-24T14:38:39.157Z,29.00
2019-02-24T14:41:09.027Z,33.60
2019-02-24T14:43:38.164Z,31.98
2019-02-24T14:46:07.687Z,29.20
2019-02-24T14:48:36.868Z,28.89
2019-02-24T14:51:06.015Z,29.90
2019-02-24T14:53:35.364Z,29.38
2019-02-24T14:56:05.761Z,27.76
2019-02-24T14:58:34.903Z,28.41
2019-02-24T15:01:04.099Z,29.85
2019-02-24T15:03:34.025Z,30.71
2019-02-24T15:06:03.551Z,33.65
2019-02-24T15:08:32.829Z,32.08
2019-02-24T15:11:02.280Z,29.79
2019-02-24T15:13:31.746Z,33.94
2019-02-24T15:16:01.031Z,31.44
2019-02-24T15:18:30.880Z,33.86
2019-02-24T15:21:00.661Z,32.78
2019-02-24T15:23:30.495Z,33.57
2019-02-24T15:26:00.039Z,33.81
2019-02-24T15:28:29.239Z,29.98
2019-02-24T15:30:58.695Z,33.54
2019-02-24T15:33:27.916Z,32.87
2019-02-24T15:35:57.203Z,34.48
2019-02-24T15:38:26.358Z,32.32
2019-02-24T15:40:55.506Z,33.81
2019-02-24T15:43:25.761Z,33.43
2019-02-24T15:45:55.550Z,32.32
2019-02-24T15:48:25.273Z,32.88
2019-02-24T15:50:56.846Z,34.01
2019-02-24T15:53:26.810Z,33.43
2019-02-24T15:55:56.284Z,34.03
2019-02-24T15:58:25.841Z,33.54
2019-02-24T16:00:55.162Z,33.34
2019-02-24T16:03:24.740Z,33.77
2019-02-24T16:05:53.885Z,33.55
2019-02-24T16:08:23.056Z,32.66
2019-02-24T16:10:52.251Z,35.36
2019-02-24T16:13:22.151Z,35.29
2019-02-24T16:15:51.308Z,34.18
2019-02-24T16:18:20.668Z,36.28
2019-02-24T16:20:49.809Z,36.91
2019-02-24T16:23:20.317Z,36.05
2019-02-24T16:25:51.520Z,35.59
2019-02-24T16:28:20.697Z,35.62
2019-02-24T16:30:50.235Z,35.52
2019-02-24T16:33:19.816Z,36.15
2019-02-24T16:35:49.103Z,35.88
2019-02-24T16:38:18.762Z,36.09
2019-02-24T16:40:49.110Z,36.96
2019-02-24T16:43:19.953Z,37.74
2019-02-24T16:45:49.110Z,38.32
2019-02-24T16:48:18.710Z,39.22
2019-02-24T16:50:48.172Z,39.28
2019-02-24T16:53:17.349Z,39.01
2019-02-24T16:55:46.834Z,38.85
2019-02-24T16:58:16.557Z,39.22
2019-02-24T17:00:46.172Z,39.06
2019-02-24T17:03:19.807Z,38.41
2019-02-24T17:05:47.210Z,38.20
2019-02-24T17:08:16.738Z,38.86
2019-02-24T17:10:46.162Z,40.48
2019-02-24T17:13:15.764Z,40.68
2019-02-24T17:15:45.357Z,41.30
2019-02-24T17:18:14.766Z,41.40
2019-02-24T17:20:44.460Z,41.05
2019-02-24T17:23:14.378Z,41.83
2019-02-24T17:25:43.857Z,42.65
2019-02-24T17:28:13.332Z,42.68
2019-02-24T17:30:42.509Z,40.79
2019-02-24T17:33:11.713Z,41.15
2019-02-24T17:35:41.727Z,41.59
2019-02-24T17:38:11.027Z,42.81
2019-02-24T17:40:40.264Z,43.49
2019-02-24T17:43:10.009Z,43.92
2019-02-24T17:45:39.696Z,43.86
2019-02-24T17:48:08.926Z,44.49
2019-02-24T17:50:39.396Z,43.62
2019-02-24T17:53:09.005Z,43.08
2019-02-24T17:55:38.878Z,42.40
2019-02-24T17:58:08.216Z,42.65
2019-02-24T18:00:43.625Z,44.14
2019-02-24T18:03:13.291Z,43.62
2019-02-24T18:05:42.466Z,42.55
2019-02-24T18:08:11.612Z,43.01
2019-02-24T18:10:40.834Z,43.82
2019-02-24T18:13:10.247Z,42.44
2019-02-24T18:15:39.436Z,41.50
2019-02-24T18:18:09.148Z,42.16
2019-02-24T18:20:38.647Z,42.67
2019-02-24T18:23:08.104Z,42.88
2019-02-24T18:25:37.382Z,43.41
2019-02-24T18:28:06.881Z,44.46
2019-02-24T18:30:36.163Z,45.41
2019-02-24T18:33:05.427Z,46.13
2019-02-24T18:35:34.654Z,46.76
2019-02-24T18:38:03.832Z,46.07
2019-02-24T18:40:35.619Z,46.23
2019-02-24T18:43:04.978Z,46.47
2019-02-24T18:45:34.178Z,45.19
2019-02-24T18:48:03.766Z,44.92
2019-02-24T18:50:33.096Z,45.71
2019-02-24T18:53:02.454Z,46.28
2019-02-24T18:55:32.003Z,46.97
2019-02-24T18:58:01.582Z,47.60
2019-02-24T19:00:32.554Z,48.40
2019-02-24T19:03:02.257Z,46.74
2019-02-24T19:05:31.419Z,46.43
2019-02-24T19:08:01.134Z,47.84
2019-02-24T19:10:30.508Z,48.39
2019-02-24T19:12:59.926Z,46.97
2019-02-24T19:15:29.488Z,46.44
2019-02-24T19:17:59.067Z,46.60
2019-02-24T19:20:28.714Z,48.08
2019-02-24T19:22:58.239Z,48.51
2019-02-24T19:25:27.381Z,49.06
2019-02-24T19:27:57.172Z,49.59
2019-02-24T19:30:26.827Z,49.68
2019-02-24T19:32:56.548Z,46.69
2019-02-24T19:35:26.283Z,46.84
2019-02-24T19:37:55.493Z,48.23
2019-02-24T19:40:25.441Z,48.77
2019-02-24T19:42:55.361Z,49.08
2019-02-24T19:45:25.831Z,48.86
2019-02-24T19:47:55.520Z,48.63
2019-02-24T19:50:25.082Z,48.52
2019-02-24T19:52:55.469Z,48.49
2019-02-24T19:55:25.010Z,49.17
2019-02-24T19:57:54.270Z,49.85
2019-02-24T20:00:23.806Z,50.55
2019-02-24T20:02:53.413Z,50.05
2019-02-24T20:05:22.815Z,49.07
2019-02-24T20:07:52.073Z,48.60
2019-02-24T20:10:22.246Z,48.27
2019-02-24T20:12:53.441Z,48.74
2019-02-24T20:15:23.045Z,48.85
2019-02-24T20:17:52.476Z,49.25
2019-02-24T20:20:22.174Z,48.95
2019-02-24T20:22:51.576Z,49.43
2019-02-24T20:25:21.362Z,50.04
2019-02-24T20:27:50.563Z,50.01
2019-02-24T20:30:24.811Z,50.27
2019-02-24T20:32:54.362Z,50.92
2019-02-24T20:35:23.995Z,50.11
2019-02-24T20:37:53.206Z,48.63
2019-02-24T20:40:22.369Z,47.75
2019-02-24T20:42:51.706Z,48.29
2019-02-24T20:45:21.401Z,48.90
2019-02-24T20:47:50.886Z,49.75
2019-02-24T20:50:20.998Z,50.33
2019-02-24T20:52:50.177Z,49.64
2019-02-24T20:55:20.372Z,48.34
2019-02-24T20:57:50.388Z,50.87
2019-02-24T21:00:30.772Z,51.31
2019-02-24T21:03:01.438Z,52.02
2019-02-24T21:05:31.134Z,52.22
2019-02-24T21:08:00.700Z,51.57
2019-02-24T21:10:29.869Z,51.11
2019-02-24T21:12:59.689Z,51.11
2019-02-24T21:15:29.391Z,49.47
2019-02-24T21:17:58.558Z,47.67
2019-02-24T21:20:28.586Z,48.38
2019-02-24T21:22:58.116Z,48.04
2019-02-24T21:25:27.688Z,46.56
2019-02-24T21:27:56.913Z,46.82
2019-02-24T21:30:26.233Z,44.44
2019-02-24T21:32:55.409Z,44.34
2019-02-24T21:35:24.926Z,45.47
2019-02-24T21:37:54.102Z,47.04
2019-02-24T21:40:23.860Z,47.73
2019-02-24T21:42:53.364Z,47.87
2019-02-24T21:45:22.851Z,47.13
2019-02-24T21:47:52.504Z,46.36
2019-02-24T21:50:21.702Z,45.50
2019-02-24T21:52:50.843Z,45.81
2019-02-24T21:55:20.011Z,46.15
2019-02-24T21:57:49.218Z,45.81
2019-02-24T22:00:20.533Z,46.00
2019-02-24T22:02:50.181Z,48.09
2019-02-24T22:05:19.973Z,48.61
2019-02-24T22:07:49.554Z,48.82
2019-02-24T22:10:19.370Z,48.75
2019-02-24T22:12:49.054Z,49.37
2019-02-24T22:15:19.219Z,49.55
2019-02-24T22:17:48.705Z,49.23
2019-02-24T22:20:17.864Z,49.23
2019-02-24T22:22:47.051Z,49.38
2019-02-24T22:25:16.816Z,49.10
2019-02-24T22:27:46.542Z,46.43
2019-02-24T22:30:17.031Z,45.91
2019-02-24T22:32:46.190Z,45.98
2019-02-24T22:35:15.397Z,46.81
2019-02-24T22:37:45.004Z,49.02
2019-02-24T22:40:16.400Z,49.63
2019-02-24T22:42:46.034Z,49.90
2019-02-24T22:45:17.195Z,49.96
2019-02-24T22:47:47.482Z,48.99
2019-02-24T22:50:17.055Z,47.93
2019-02-24T22:52:46.537Z,47.01
2019-02-24T22:55:15.855Z,45.67
2019-02-24T22:57:45.207Z,44.36
2019-02-24T23:00:30.605Z,44.46
2019-02-24T23:03:00.502Z,44.28
2019-02-24T23:05:30.089Z,44.54
2019-02-24T23:07:59.335Z,45.55
2019-02-24T23:10:29.004Z,45.38
2019-02-24T23:12:58.311Z,43.12
2019-02-24T23:15:27.824Z,43.32
2019-02-24T23:17:56.945Z,43.87
2019-02-24T23:20:26.536Z,43.44
2019-02-24T23:22:55.722Z,43.29
2019-02-24T23:25:24.932Z,44.17
2019-02-24T23:27:54.262Z,44.71
2019-02-24T23:30:23.460Z,45.08
2019-02-24T23:32:52.611Z,45.30
2019-02-24T23:35:22.216Z,46.82
2019-02-24T23:37:51.383Z,47.45
2019-02-24T23:40:20.996Z,47.51
2019-02-24T23:42:50.553Z,47.41
2019-02-24T23:45:20.449Z,47.30
2019-02-24T23:47:49.598Z,47.67
2019-02-24T23:50:19.053Z,47.60
2019-02-24T23:52:48.558Z,47.43
2019-02-24T23:55:17.728Z,47.29
2019-02-24T23:57:46.870Z,48.44
